sensor_id;sensor_type;location;lat;lon;timestamp;P1;durP1;ratioP1;P2;durP2;ratioP2
29120;SDS011;16191;49.548;8.658;2023-02-10T00:01:06;45.42;;;23.42;;
29120;SDS011;16191;49.548;8.658;2023-02-10T00:03:37;48.03;;;23.23;;
29120;SDS011;16191;49.548;8.658;2023-02-10T00:06:04;48.42;;;24.63;;
29120;SDS011;16191;49.548;8.658;2023-02-10T00:08:31;50.42;;;25.02;;
29120;SDS011;16191;49.548;8.658;2023-02-10T00:10:59;45.40;;;24.02;;
29120;SDS011;16191;49.548;8.658;2023-02-10T00:13:27;46.00;;;24.05;;
29120;SDS011;16191;49.548;8.658;2023-02-10T00:15:58;48.30;;;23.80;;
29120;SDS011;16191;49.548;8.658;2023-02-10T00:18:27;46.90;;;24.38;;
29120;SDS011;16191;49.548;8.658;2023-02-10T00:20:54;44.55;;;23.60;;
29120;SDS011;16191;49.548;8.658;2023-02-10T00:23:21;50.72;;;24.77;;
29120;SDS011;16191;49.548;8.658;2023-02-10T00:25:48;48.75;;;25.20;;
29120;SDS011;16191;49.548;8.658;2023-02-10T00:28:15;51.85;;;23.80;;
29120;SDS011;16191;49.548;8.658;2023-02-10T00:30:43;47.53;;;24.27;;
29120;SDS011;16191;49.548;8.658;2023-02-10T00:33:09;47.40;;;23.33;;
29120;SDS011;16191;49.548;8.658;2023-02-10T00:35:36;46.03;;;23.38;;
29120;SDS011;16191;49.548;8.658;2023-02-10T00:38:04;48.45;;;23.45;;
29120;SDS011;16191;49.548;8.658;2023-02-10T00:40:31;48.10;;;23.35;;
29120;SDS011;16191;49.548;8.658;2023-02-10T00:42:57;46.70;;;22.92;;
29120;SDS011;16191;49.548;8.658;2023-02-10T00:45:24;49.88;;;23.67;;
29120;SDS011;16191;49.548;8.658;2023-02-10T00:47:51;49.25;;;24.08;;
29120;SDS011;16191;49.548;8.658;2023-02-10T00:50:17;46.47;;;23.63;;
29120;SDS011;16191;49.548;8.658;2023-02-10T00:52:44;54.20;;;24.45;;
29120;SDS011;16191;49.548;8.658;2023-02-10T00:55:12;45.00;;;22.92;;
29120;SDS011;16191;49.548;8.658;2023-02-10T00:57:38;44.92;;;23.05;;
29120;SDS011;16191;49.548;8.658;2023-02-10T01:00:05;45.35;;;22.77;;
29120;SDS011;16191;49.548;8.658;2023-02-10T01:02:32;47.42;;;23.08;;
29120;SDS011;16191;49.548;8.658;2023-02-10T01:04:59;48.42;;;24.25;;
29120;SDS011;16191;49.548;8.658;2023-02-10T01:07:26;50.38;;;23.88;;
29120;SDS011;16191;49.548;8.658;2023-02-10T01:09:52;47.08;;;23.60;;
29120;SDS011;16191;49.548;8.658;2023-02-10T01:12:19;43.75;;;22.95;;
29120;SDS011;16191;49.548;8.658;2023-02-10T01:14:46;48.97;;;24.83;;
29120;SDS011;16191;49.548;8.658;2023-02-10T01:17:12;47.90;;;25.90;;
29120;SDS011;16191;49.548;8.658;2023-02-10T01:19:41;51.70;;;24.35;;
29120;SDS011;16191;49.548;8.658;2023-02-10T01:22:08;51.45;;;23.85;;
29120;SDS011;16191;49.548;8.658;2023-02-10T01:24:36;49.72;;;24.20;;
29120;SDS011;16191;49.548;8.658;2023-02-10T01:27:02;49.28;;;24.67;;
29120;SDS011;16191;49.548;8.658;2023-02-10T01:29:29;51.30;;;23.30;;
29120;SDS011;16191;49.548;8.658;2023-02-10T01:31:56;53.33;;;25.60;;
29120;SDS011;16191;49.548;8.658;2023-02-10T01:34:23;49.97;;;23.52;;
29120;SDS011;16191;49.548;8.658;2023-02-10T01:36:50;49.78;;;23.80;;
29120;SDS011;16191;49.548;8.658;2023-02-10T01:39:17;46.58;;;24.27;;
29120;SDS011;16191;49.548;8.658;2023-02-10T01:42:03;52.95;;;23.27;;
29120;SDS011;16191;49.548;8.658;2023-02-10T01:47:36;49.85;;;24.02;;
29120;SDS011;16191;49.548;8.658;2023-02-10T01:50:25;50.88;;;23.23;;
29120;SDS011;16191;49.548;8.658;2023-02-10T01:53:15;46.33;;;23.05;;
29120;SDS011;16191;49.548;8.658;2023-02-10T01:56:02;46.15;;;21.92;;
29120;SDS011;16191;49.548;8.658;2023-02-10T01:58:29;47.40;;;23.88;;
29120;SDS011;16191;49.548;8.658;2023-02-10T02:00:59;44.63;;;23.02;;
29120;SDS011;16191;49.548;8.658;2023-02-10T02:03:26;48.70;;;23.40;;
29120;SDS011;16191;49.548;8.658;2023-02-10T02:05:53;45.42;;;22.33;;
29120;SDS011;16191;49.548;8.658;2023-02-10T02:16:44;48.95;;;22.92;;
29120;SDS011;16191;49.548;8.658;2023-02-10T02:33:05;49.30;;;24.15;;
29120;SDS011;16191;49.548;8.658;2023-02-10T02:35:44;47.55;;;22.70;;
29120;SDS011;16191;49.548;8.658;2023-02-10T02:38:16;50.30;;;23.85;;
29120;SDS011;16191;49.548;8.658;2023-02-10T02:40:43;49.83;;;23.83;;
29120;SDS011;16191;49.548;8.658;2023-02-10T02:43:09;49.30;;;22.77;;
29120;SDS011;16191;49.548;8.658;2023-02-10T02:45:41;53.60;;;24.55;;
29120;SDS011;16191;49.548;8.658;2023-02-10T02:48:22;52.78;;;22.80;;
29120;SDS011;16191;49.548;8.658;2023-02-10T02:51:04;51.15;;;23.15;;
29120;SDS011;16191;49.548;8.658;2023-02-10T02:56:24;45.20;;;22.30;;
29120;SDS011;16191;49.548;8.658;2023-02-10T02:59:08;53.60;;;24.27;;
29120;SDS011;16191;49.548;8.658;2023-02-10T03:01:44;49.00;;;22.70;;
29120;SDS011;16191;49.548;8.658;2023-02-10T03:04:16;48.22;;;23.45;;
29120;SDS011;16191;49.548;8.658;2023-02-10T03:06:43;51.35;;;24.63;;
29120;SDS011;16191;49.548;8.658;2023-02-10T03:09:10;46.88;;;23.08;;
29120;SDS011;16191;49.548;8.658;2023-02-10T03:11:37;49.08;;;24.48;;
29120;SDS011;16191;49.548;8.658;2023-02-10T03:14:04;46.33;;;21.92;;
29120;SDS011;16191;49.548;8.658;2023-02-10T03:16:31;45.08;;;21.50;;
29120;SDS011;16191;49.548;8.658;2023-02-10T03:18:57;59.05;;;24.67;;
29120;SDS011;16191;49.548;8.658;2023-02-10T03:21:24;46.70;;;22.73;;
29120;SDS011;16191;49.548;8.658;2023-02-10T03:23:52;47.47;;;23.75;;
29120;SDS011;16191;49.548;8.658;2023-02-10T03:26:18;53.20;;;24.00;;
29120;SDS011;16191;49.548;8.658;2023-02-10T03:28:45;48.92;;;23.63;;
29120;SDS011;16191;49.548;8.658;2023-02-10T03:31:12;49.17;;;22.42;;
29120;SDS011;16191;49.548;8.658;2023-02-10T03:33:39;45.72;;;22.52;;
29120;SDS011;16191;49.548;8.658;2023-02-10T03:36:06;49.53;;;24.13;;
29120;SDS011;16191;49.548;8.658;2023-02-10T03:38:33;47.60;;;22.42;;
29120;SDS011;16191;49.548;8.658;2023-02-10T03:41:00;49.53;;;22.50;;
29120;SDS011;16191;49.548;8.658;2023-02-10T03:43:27;46.33;;;23.98;;
29120;SDS011;16191;49.548;8.658;2023-02-10T03:45:53;47.83;;;22.75;;
29120;SDS011;16191;49.548;8.658;2023-02-10T03:48:20;49.20;;;23.80;;
29120;SDS011;16191;49.548;8.658;2023-02-10T03:50:48;47.67;;;22.63;;
29120;SDS011;16191;49.548;8.658;2023-02-10T03:53:15;45.22;;;22.80;;
29120;SDS011;16191;49.548;8.658;2023-02-10T03:55:41;47.15;;;23.30;;
29120;SDS011;16191;49.548;8.658;2023-02-10T03:58:08;43.33;;;22.23;;
29120;SDS011;16191;49.548;8.658;2023-02-10T04:00:35;44.80;;;21.95;;
29120;SDS011;16191;49.548;8.658;2023-02-10T04:03:02;42.92;;;21.92;;
29120;SDS011;16191;49.548;8.658;2023-02-10T04:05:29;49.20;;;23.15;;
29120;SDS011;16191;49.548;8.658;2023-02-10T04:07:56;50.20;;;23.23;;
29120;SDS011;16191;49.548;8.658;2023-02-10T04:10:22;47.50;;;23.08;;
29120;SDS011;16191;49.548;8.658;2023-02-10T04:12:49;49.72;;;23.13;;
29120;SDS011;16191;49.548;8.658;2023-02-10T04:15:15;45.55;;;20.92;;
29120;SDS011;16191;49.548;8.658;2023-02-10T04:17:42;43.90;;;22.27;;
29120;SDS011;16191;49.548;8.658;2023-02-10T04:20:10;45.58;;;21.80;;
29120;SDS011;16191;49.548;8.658;2023-02-10T04:22:37;44.10;;;21.25;;
29120;SDS011;16191;49.548;8.658;2023-02-10T04:25:04;46.13;;;22.35;;
29120;SDS011;16191;49.548;8.658;2023-02-10T04:27:32;46.03;;;20.98;;
29120;SDS011;16191;49.548;8.658;2023-02-10T04:29:59;61.78;;;23.10;;
29120;SDS011;16191;49.548;8.658;2023-02-10T04:32:26;51.97;;;24.25;;
29120;SDS011;16191;49.548;8.658;2023-02-10T04:34:53;51.63;;;22.20;;
29120;SDS011;16191;49.548;8.658;2023-02-10T04:37:19;48.25;;;22.58;;
29120;SDS011;16191;49.548;8.658;2023-02-10T04:39:46;45.22;;;21.13;;
29120;SDS011;16191;49.548;8.658;2023-02-10T04:42:13;52.10;;;21.70;;
29120;SDS011;16191;49.548;8.658;2023-02-10T04:44:39;48.35;;;22.38;;
29120;SDS011;16191;49.548;8.658;2023-02-10T04:47:06;46.70;;;22.65;;
29120;SDS011;16191;49.548;8.658;2023-02-10T04:49:33;44.92;;;21.75;;
29120;SDS011;16191;49.548;8.658;2023-02-10T04:51:59;47.95;;;22.38;;
29120;SDS011;16191;49.548;8.658;2023-02-10T04:54:26;50.33;;;21.77;;
29120;SDS011;16191;49.548;8.658;2023-02-10T04:56:53;49.88;;;22.88;;
29120;SDS011;16191;49.548;8.658;2023-02-10T04:59:19;50.05;;;22.77;;
29120;SDS011;16191;49.548;8.658;2023-02-10T05:01:46;52.35;;;23.17;;
29120;SDS011;16191;49.548;8.658;2023-02-10T05:04:13;48.20;;;23.77;;
29120;SDS011;16191;49.548;8.658;2023-02-10T05:06:39;47.65;;;22.88;;
29120;SDS011;16191;49.548;8.658;2023-02-10T05:09:06;50.95;;;23.30;;
29120;SDS011;16191;49.548;8.658;2023-02-10T05:11:33;49.28;;;22.60;;
29120;SDS011;16191;49.548;8.658;2023-02-10T05:13:59;54.05;;;22.63;;
29120;SDS011;16191;49.548;8.658;2023-02-10T05:16:26;51.05;;;24.13;;
29120;SDS011;16191;49.548;8.658;2023-02-10T05:18:52;49.33;;;22.98;;
29120;SDS011;16191;49.548;8.658;2023-02-10T05:21:19;51.03;;;23.65;;
29120;SDS011;16191;49.548;8.658;2023-02-10T05:23:46;52.60;;;24.02;;
29120;SDS011;16191;49.548;8.658;2023-02-10T05:26:13;49.03;;;23.45;;
29120;SDS011;16191;49.548;8.658;2023-02-10T05:28:40;46.45;;;22.52;;
29120;SDS011;16191;49.548;8.658;2023-02-10T05:31:07;46.67;;;22.40;;
29120;SDS011;16191;49.548;8.658;2023-02-10T05:33:34;48.80;;;22.42;;
29120;SDS011;16191;49.548;8.658;2023-02-10T05:36:01;52.10;;;22.15;;
29120;SDS011;16191;49.548;8.658;2023-02-10T05:38:27;52.22;;;24.77;;
29120;SDS011;16191;49.548;8.658;2023-02-10T05:40:54;49.42;;;22.52;;
29120;SDS011;16191;49.548;8.658;2023-02-10T05:43:21;45.10;;;23.30;;
29120;SDS011;16191;49.548;8.658;2023-02-10T05:45:47;57.13;;;25.95;;
29120;SDS011;16191;49.548;8.658;2023-02-10T05:48:15;49.72;;;23.05;;
29120;SDS011;16191;49.548;8.658;2023-02-10T05:50:42;48.92;;;23.73;;
29120;SDS011;16191;49.548;8.658;2023-02-10T05:53:12;46.78;;;22.77;;
29120;SDS011;16191;49.548;8.658;2023-02-10T05:55:39;47.08;;;23.10;;
29120;SDS011;16191;49.548;8.658;2023-02-10T05:58:06;50.53;;;23.42;;
29120;SDS011;16191;49.548;8.658;2023-02-10T06:00:32;49.95;;;22.38;;
29120;SDS011;16191;49.548;8.658;2023-02-10T06:02:59;46.15;;;22.30;;
29120;SDS011;16191;49.548;8.658;2023-02-10T06:05:26;44.95;;;22.30;;
29120;SDS011;16191;49.548;8.658;2023-02-10T06:07:52;51.55;;;23.23;;
29120;SDS011;16191;49.548;8.658;2023-02-10T06:10:21;52.72;;;22.35;;
29120;SDS011;16191;49.548;8.658;2023-02-10T06:12:48;52.05;;;23.38;;
29120;SDS011;16191;49.548;8.658;2023-02-10T06:15:16;47.47;;;23.35;;
29120;SDS011;16191;49.548;8.658;2023-02-10T06:17:42;51.78;;;21.88;;
29120;SDS011;16191;49.548;8.658;2023-02-10T06:20:09;46.50;;;22.95;;
29120;SDS011;16191;49.548;8.658;2023-02-10T06:22:37;51.22;;;24.15;;
29120;SDS011;16191;49.548;8.658;2023-02-10T06:25:04;53.25;;;24.45;;
29120;SDS011;16191;49.548;8.658;2023-02-10T06:27:31;44.97;;;22.27;;
29120;SDS011;16191;49.548;8.658;2023-02-10T06:29:58;48.33;;;21.38;;
29120;SDS011;16191;49.548;8.658;2023-02-10T06:32:25;53.42;;;22.58;;
29120;SDS011;16191;49.548;8.658;2023-02-10T06:34:51;49.15;;;23.05;;
29120;SDS011;16191;49.548;8.658;2023-02-10T06:37:18;46.42;;;22.75;;
29120;SDS011;16191;49.548;8.658;2023-02-10T06:39:44;46.97;;;23.13;;
29120;SDS011;16191;49.548;8.658;2023-02-10T06:42:11;50.10;;;23.27;;
29120;SDS011;16191;49.548;8.658;2023-02-10T06:44:37;53.78;;;24.17;;
29120;SDS011;16191;49.548;8.658;2023-02-10T06:47:04;55.30;;;24.35;;
29120;SDS011;16191;49.548;8.658;2023-02-10T06:49:31;55.45;;;25.27;;
29120;SDS011;16191;49.548;8.658;2023-02-10T06:51:58;47.55;;;23.27;;
29120;SDS011;16191;49.548;8.658;2023-02-10T06:54:24;47.25;;;22.90;;
29120;SDS011;16191;49.548;8.658;2023-02-10T06:56:51;46.47;;;21.98;;
29120;SDS011;16191;49.548;8.658;2023-02-10T06:59:18;51.28;;;23.20;;
29120;SDS011;16191;49.548;8.658;2023-02-10T07:01:44;52.63;;;25.58;;
29120;SDS011;16191;49.548;8.658;2023-02-10T07:04:11;53.83;;;26.80;;
29120;SDS011;16191;49.548;8.658;2023-02-10T07:06:38;51.13;;;25.15;;
29120;SDS011;16191;49.548;8.658;2023-02-10T07:09:05;48.30;;;23.70;;
29120;SDS011;16191;49.548;8.658;2023-02-10T07:11:32;48.05;;;23.17;;
29120;SDS011;16191;49.548;8.658;2023-02-10T07:14:00;58.10;;;24.67;;
29120;SDS011;16191;49.548;8.658;2023-02-10T07:16:26;59.40;;;25.80;;
29120;SDS011;16191;49.548;8.658;2023-02-10T07:18:54;51.15;;;25.48;;
29120;SDS011;16191;49.548;8.658;2023-02-10T07:21:20;57.45;;;25.17;;
29120;SDS011;16191;49.548;8.658;2023-02-10T07:23:47;50.22;;;25.55;;
29120;SDS011;16191;49.548;8.658;2023-02-10T07:26:14;53.00;;;24.88;;
29120;SDS011;16191;49.548;8.658;2023-02-10T07:28:44;50.25;;;25.25;;
29120;SDS011;16191;49.548;8.658;2023-02-10T07:31:11;49.80;;;24.05;;
29120;SDS011;16191;49.548;8.658;2023-02-10T07:33:38;44.75;;;24.00;;
29120;SDS011;16191;49.548;8.658;2023-02-10T07:36:05;48.33;;;24.42;;
29120;SDS011;16191;49.548;8.658;2023-02-10T07:38:33;50.45;;;24.30;;
29120;SDS011;16191;49.548;8.658;2023-02-10T07:41:00;48.88;;;23.52;;
29120;SDS011;16191;49.548;8.658;2023-02-10T07:43:26;52.88;;;24.77;;
29120;SDS011;16191;49.548;8.658;2023-02-10T07:46:05;51.35;;;24.67;;
29120;SDS011;16191;49.548;8.658;2023-02-10T07:48:32;55.22;;;24.95;;
29120;SDS011;16191;49.548;8.658;2023-02-10T07:50:58;51.45;;;25.10;;
29120;SDS011;16191;49.548;8.658;2023-02-10T07:53:25;51.63;;;24.70;;
29120;SDS011;16191;49.548;8.658;2023-02-10T07:55:51;60.03;;;26.65;;
29120;SDS011;16191;49.548;8.658;2023-02-10T07:58:18;58.38;;;26.55;;
29120;SDS011;16191;49.548;8.658;2023-02-10T08:00:45;46.20;;;24.73;;
29120;SDS011;16191;49.548;8.658;2023-02-10T08:03:13;52.08;;;24.40;;
29120;SDS011;16191;49.548;8.658;2023-02-10T08:05:40;51.40;;;25.38;;
29120;SDS011;16191;49.548;8.658;2023-02-10T08:08:09;51.60;;;24.70;;
29120;SDS011;16191;49.548;8.658;2023-02-10T08:10:39;48.63;;;25.98;;
29120;SDS011;16191;49.548;8.658;2023-02-10T08:13:05;57.10;;;27.42;;
29120;SDS011;16191;49.548;8.658;2023-02-10T08:15:32;61.45;;;27.17;;
29120;SDS011;16191;49.548;8.658;2023-02-10T08:18:00;58.40;;;28.67;;
29120;SDS011;16191;49.548;8.658;2023-02-10T08:20:27;54.53;;;26.15;;
29120;SDS011;16191;49.548;8.658;2023-02-10T08:22:54;55.33;;;27.77;;
29120;SDS011;16191;49.548;8.658;2023-02-10T08:25:22;57.45;;;29.00;;
29120;SDS011;16191;49.548;8.658;2023-02-10T08:27:49;52.83;;;27.73;;
29120;SDS011;16191;49.548;8.658;2023-02-10T08:30:16;58.25;;;29.23;;
29120;SDS011;16191;49.548;8.658;2023-02-10T08:32:43;58.17;;;28.92;;
29120;SDS011;16191;49.548;8.658;2023-02-10T08:35:10;59.63;;;30.83;;
29120;SDS011;16191;49.548;8.658;2023-02-10T08:37:37;57.45;;;30.60;;
29120;SDS011;16191;49.548;8.658;2023-02-10T08:40:04;56.97;;;29.38;;
29120;SDS011;16191;49.548;8.658;2023-02-10T08:42:32;58.20;;;28.88;;
29120;SDS011;16191;49.548;8.658;2023-02-10T08:44:59;69.60;;;33.70;;
29120;SDS011;16191;49.548;8.658;2023-02-10T08:47:27;62.15;;;30.50;;
29120;SDS011;16191;49.548;8.658;2023-02-10T08:49:53;68.13;;;32.55;;
29120;SDS011;16191;49.548;8.658;2023-02-10T08:52:21;58.35;;;29.00;;
29120;SDS011;16191;49.548;8.658;2023-02-10T08:54:48;61.65;;;31.10;;
29120;SDS011;16191;49.548;8.658;2023-02-10T08:57:15;60.60;;;30.55;;
29120;SDS011;16191;49.548;8.658;2023-02-10T08:59:41;74.13;;;32.58;;
29120;SDS011;16191;49.548;8.658;2023-02-10T09:02:09;61.60;;;31.73;;
29120;SDS011;16191;49.548;8.658;2023-02-10T09:04:38;64.28;;;32.63;;
29120;SDS011;16191;49.548;8.658;2023-02-10T09:07:05;73.32;;;34.53;;
29120;SDS011;16191;49.548;8.658;2023-02-10T09:09:35;60.75;;;31.50;;
29120;SDS011;16191;49.548;8.658;2023-02-10T09:12:05;62.22;;;32.75;;
29120;SDS011;16191;49.548;8.658;2023-02-10T09:14:31;61.72;;;29.40;;
29120;SDS011;16191;49.548;8.658;2023-02-10T09:16:58;65.03;;;32.33;;
29120;SDS011;16191;49.548;8.658;2023-02-10T09:19:26;68.00;;;33.00;;
29120;SDS011;16191;49.548;8.658;2023-02-10T09:21:52;68.97;;;32.25;;
29120;SDS011;16191;49.548;8.658;2023-02-10T09:24:21;64.88;;;32.97;;
29120;SDS011;16191;49.548;8.658;2023-02-10T09:26:49;58.67;;;32.03;;
29120;SDS011;16191;49.548;8.658;2023-02-10T09:29:17;56.17;;;29.83;;
29120;SDS011;16191;49.548;8.658;2023-02-10T09:31:44;58.13;;;30.10;;
29120;SDS011;16191;49.548;8.658;2023-02-10T09:34:10;60.10;;;30.67;;
29120;SDS011;16191;49.548;8.658;2023-02-10T09:36:37;59.55;;;30.23;;
29120;SDS011;16191;49.548;8.658;2023-02-10T09:39:04;59.65;;;29.92;;
29120;SDS011;16191;49.548;8.658;2023-02-10T09:44:03;58.72;;;30.70;;
29120;SDS011;16191;49.548;8.658;2023-02-10T09:49:22;62.95;;;31.42;;
29120;SDS011;16191;49.548;8.658;2023-02-10T09:54:18;58.53;;;30.60;;
29120;SDS011;16191;49.548;8.658;2023-02-10T09:56:46;59.92;;;29.30;;
29120;SDS011;16191;49.548;8.658;2023-02-10T09:59:14;61.75;;;30.27;;
29120;SDS011;16191;49.548;8.658;2023-02-10T10:01:52;58.45;;;29.88;;
29120;SDS011;16191;49.548;8.658;2023-02-10T10:04:26;56.50;;;30.60;;
29120;SDS011;16191;49.548;8.658;2023-02-10T10:06:59;58.05;;;30.08;;
29120;SDS011;16191;49.548;8.658;2023-02-10T10:09:43;64.03;;;31.20;;
29120;SDS011;16191;49.548;8.658;2023-02-10T10:12:16;57.55;;;31.05;;
29120;SDS011;16191;49.548;8.658;2023-02-10T10:14:44;59.13;;;30.17;;
29120;SDS011;16191;49.548;8.658;2023-02-10T10:26:00;51.42;;;27.75;;
29120;SDS011;16191;49.548;8.658;2023-02-10T10:28:53;55.60;;;29.00;;
29120;SDS011;16191;49.548;8.658;2023-02-10T10:31:24;47.90;;;26.05;;
29120;SDS011;16191;49.548;8.658;2023-02-10T10:36:33;52.58;;;27.00;;
29120;SDS011;16191;49.548;8.658;2023-02-10T10:39:13;49.92;;;26.73;;
29120;SDS011;16191;49.548;8.658;2023-02-10T10:41:44;60.03;;;27.58;;
29120;SDS011;16191;49.548;8.658;2023-02-10T10:44:15;52.55;;;27.48;;
29120;SDS011;16191;49.548;8.658;2023-02-10T10:46:49;49.20;;;26.13;;
29120;SDS011;16191;49.548;8.658;2023-02-10T10:49:23;51.78;;;27.85;;
29120;SDS011;16191;49.548;8.658;2023-02-10T10:51:50;54.35;;;26.48;;
29120;SDS011;16191;49.548;8.658;2023-02-10T10:54:18;51.38;;;27.33;;
29120;SDS011;16191;49.548;8.658;2023-02-10T10:56:49;53.90;;;28.02;;
29120;SDS011;16191;49.548;8.658;2023-02-10T11:01:49;53.60;;;27.25;;
29120;SDS011;16191;49.548;8.658;2023-02-10T11:04:19;49.75;;;26.67;;
29120;SDS011;16191;49.548;8.658;2023-02-10T11:06:50;56.65;;;27.63;;
29120;SDS011;16191;49.548;8.658;2023-02-10T11:12:03;56.35;;;28.48;;
29120;SDS011;16191;49.548;8.658;2023-02-10T11:14:48;49.33;;;25.92;;
29120;SDS011;16191;49.548;8.658;2023-02-10T11:17:30;55.22;;;28.05;;
29120;SDS011;16191;49.548;8.658;2023-02-10T11:22:38;51.97;;;28.45;;
29120;SDS011;16191;49.548;8.658;2023-02-10T11:27:54;51.88;;;27.45;;
29120;SDS011;16191;49.548;8.658;2023-02-10T11:32:56;49.78;;;27.75;;
29120;SDS011;16191;49.548;8.658;2023-02-10T11:35:24;46.85;;;25.33;;
29120;SDS011;16191;49.548;8.658;2023-02-10T11:37:55;56.45;;;27.63;;
29120;SDS011;16191;49.548;8.658;2023-02-10T11:40:26;52.55;;;27.45;;
29120;SDS011;16191;49.548;8.658;2023-02-10T11:42:56;52.83;;;27.77;;
29120;SDS011;16191;49.548;8.658;2023-02-10T11:45:34;57.05;;;28.27;;
29120;SDS011;16191;49.548;8.658;2023-02-10T11:48:10;51.67;;;26.90;;
29120;SDS011;16191;49.548;8.658;2023-02-10T11:50:42;49.33;;;25.50;;
29120;SDS011;16191;49.548;8.658;2023-02-10T11:53:13;50.10;;;26.83;;
29120;SDS011;16191;49.548;8.658;2023-02-10T11:56:13;50.40;;;26.95;;
29120;SDS011;16191;49.548;8.658;2023-02-10T12:07:24;43.90;;;24.67;;
29120;SDS011;16191;49.548;8.658;2023-02-10T12:10:04;51.97;;;27.00;;
29120;SDS011;16191;49.548;8.658;2023-02-10T12:12:40;52.47;;;28.13;;
29120;SDS011;16191;49.548;8.658;2023-02-10T12:15:20;49.33;;;27.13;;
29120;SDS011;16191;49.548;8.658;2023-02-10T12:26:23;47.72;;;27.95;;
29120;SDS011;16191;49.548;8.658;2023-02-10T12:35:05;54.53;;;28.63;;
29120;SDS011;16191;49.548;8.658;2023-02-10T12:38:01;50.28;;;28.83;;
29120;SDS011;16191;49.548;8.658;2023-02-10T12:43:41;47.55;;;26.00;;
29120;SDS011;16191;49.548;8.658;2023-02-10T12:49:25;52.17;;;26.20;;
29120;SDS011;16191;49.548;8.658;2023-02-10T12:54:38;47.45;;;26.25;;
29120;SDS011;16191;49.548;8.658;2023-02-10T12:57:17;47.00;;;24.58;;
29120;SDS011;16191;49.548;8.658;2023-02-10T13:02:52;45.65;;;27.98;;
29120;SDS011;16191;49.548;8.658;2023-02-10T13:05:25;45.63;;;24.90;;
29120;SDS011;16191;49.548;8.658;2023-02-10T13:07:58;49.42;;;25.73;;
29120;SDS011;16191;49.548;8.658;2023-02-10T13:10:35;44.83;;;25.88;;
29120;SDS011;16191;49.548;8.658;2023-02-10T13:13:15;45.45;;;25.27;;
29120;SDS011;16191;49.548;8.658;2023-02-10T13:18:25;45.50;;;25.77;;
29120;SDS011;16191;49.548;8.658;2023-02-10T13:26:13;45.45;;;27.17;;
29120;SDS011;16191;49.548;8.658;2023-02-10T13:31:42;41.05;;;25.88;;
29120;SDS011;16191;49.548;8.658;2023-02-10T13:39:51;42.28;;;26.10;;
29120;SDS011;16191;49.548;8.658;2023-02-10T13:42:33;38.83;;;25.33;;
29120;SDS011;16191;49.548;8.658;2023-02-10T13:45:14;45.38;;;25.33;;
29120;SDS011;16191;49.548;8.658;2023-02-10T13:52:54;42.42;;;24.30;;
29120;SDS011;16191;49.548;8.658;2023-02-10T14:00:30;40.65;;;24.40;;
29120;SDS011;16191;49.548;8.658;2023-02-10T14:05:36;43.22;;;25.90;;
29120;SDS011;16191;49.548;8.658;2023-02-10T14:08:23;41.45;;;24.23;;
29120;SDS011;16191;49.548;8.658;2023-02-10T14:10:58;42.92;;;26.10;;
29120;SDS011;16191;49.548;8.658;2023-02-10T14:13:32;47.85;;;23.10;;
29120;SDS011;16191;49.548;8.658;2023-02-10T14:16:03;39.90;;;23.67;;
29120;SDS011;16191;49.548;8.658;2023-02-10T14:18:43;44.65;;;24.30;;
29120;SDS011;16191;49.548;8.658;2023-02-10T14:21:13;44.03;;;23.08;;
29120;SDS011;16191;49.548;8.658;2023-02-10T14:23:43;43.10;;;23.70;;
29120;SDS011;16191;49.548;8.658;2023-02-10T14:26:21;45.35;;;25.05;;
29120;SDS011;16191;49.548;8.658;2023-02-10T14:28:56;45.72;;;23.60;;
29120;SDS011;16191;49.548;8.658;2023-02-10T14:31:31;41.70;;;23.88;;
29120;SDS011;16191;49.548;8.658;2023-02-10T14:34:03;41.70;;;23.40;;
29120;SDS011;16191;49.548;8.658;2023-02-10T14:36:33;46.60;;;25.33;;
29120;SDS011;16191;49.548;8.658;2023-02-10T14:39:00;52.47;;;26.70;;
29120;SDS011;16191;49.548;8.658;2023-02-10T14:41:28;51.05;;;27.13;;
29120;SDS011;16191;49.548;8.658;2023-02-10T14:43:57;43.60;;;24.00;;
29120;SDS011;16191;49.548;8.658;2023-02-10T14:46:28;50.20;;;27.08;;
29120;SDS011;16191;49.548;8.658;2023-02-10T14:49:01;44.58;;;25.08;;
29120;SDS011;16191;49.548;8.658;2023-02-10T14:51:37;47.85;;;25.88;;
29120;SDS011;16191;49.548;8.658;2023-02-10T14:54:09;47.47;;;26.60;;
29120;SDS011;16191;49.548;8.658;2023-02-10T14:56:48;49.17;;;25.63;;
29120;SDS011;16191;49.548;8.658;2023-02-10T14:59:18;48.97;;;26.48;;
29120;SDS011;16191;49.548;8.658;2023-02-10T15:01:49;46.65;;;25.05;;
29120;SDS011;16191;49.548;8.658;2023-02-10T15:04:17;44.80;;;25.20;;
29120;SDS011;16191;49.548;8.658;2023-02-10T15:06:46;41.35;;;24.10;;
29120;SDS011;16191;49.548;8.658;2023-02-10T15:11:43;46.22;;;25.20;;
29120;SDS011;16191;49.548;8.658;2023-02-10T15:14:38;43.60;;;25.60;;
29120;SDS011;16191;49.548;8.658;2023-02-10T15:17:20;47.58;;;25.83;;
29120;SDS011;16191;49.548;8.658;2023-02-10T15:19:55;47.70;;;25.05;;
29120;SDS011;16191;49.548;8.658;2023-02-10T15:22:31;48.20;;;25.60;;
29120;SDS011;16191;49.548;8.658;2023-02-10T15:38:46;45.15;;;25.27;;
29120;SDS011;16191;49.548;8.658;2023-02-10T15:41:31;47.20;;;26.33;;
29120;SDS011;16191;49.548;8.658;2023-02-10T15:44:01;50.47;;;27.65;;
29120;SDS011;16191;49.548;8.658;2023-02-10T15:46:30;43.85;;;26.20;;
29120;SDS011;16191;49.548;8.658;2023-02-10T15:49:04;49.85;;;27.67;;
29120;SDS011;16191;49.548;8.658;2023-02-10T15:51:32;46.92;;;26.38;;
29120;SDS011;16191;49.548;8.658;2023-02-10T15:54:05;52.15;;;26.25;;
29120;SDS011;16191;49.548;8.658;2023-02-10T15:56:31;46.22;;;25.05;;
29120;SDS011;16191;49.548;8.658;2023-02-10T15:58:58;44.75;;;26.15;;
29120;SDS011;16191;49.548;8.658;2023-02-10T16:01:24;45.05;;;26.13;;
29120;SDS011;16191;49.548;8.658;2023-02-10T16:03:51;53.83;;;27.52;;
29120;SDS011;16191;49.548;8.658;2023-02-10T16:06:18;45.42;;;26.50;;
29120;SDS011;16191;49.548;8.658;2023-02-10T16:08:46;44.38;;;26.35;;
29120;SDS011;16191;49.548;8.658;2023-02-10T16:11:13;56.42;;;25.42;;
29120;SDS011;16191;49.548;8.658;2023-02-10T16:13:40;47.67;;;25.08;;
29120;SDS011;16191;49.548;8.658;2023-02-10T16:16:11;45.38;;;26.80;;
29120;SDS011;16191;49.548;8.658;2023-02-10T16:18:41;47.88;;;27.02;;
29120;SDS011;16191;49.548;8.658;2023-02-10T16:21:10;48.45;;;27.58;;
29120;SDS011;16191;49.548;8.658;2023-02-10T16:23:40;51.83;;;27.20;;
29120;SDS011;16191;49.548;8.658;2023-02-10T16:26:08;51.63;;;28.73;;
29120;SDS011;16191;49.548;8.658;2023-02-10T16:28:44;48.15;;;27.27;;
29120;SDS011;16191;49.548;8.658;2023-02-10T16:31:11;55.25;;;28.13;;
29120;SDS011;16191;49.548;8.658;2023-02-10T16:33:37;50.65;;;27.33;;
29120;SDS011;16191;49.548;8.658;2023-02-10T16:36:05;48.17;;;28.17;;
29120;SDS011;16191;49.548;8.658;2023-02-10T16:38:31;51.03;;;27.88;;
29120;SDS011;16191;49.548;8.658;2023-02-10T16:41:00;49.95;;;27.20;;
29120;SDS011;16191;49.548;8.658;2023-02-10T16:43:26;47.85;;;26.02;;
29120;SDS011;16191;49.548;8.658;2023-02-10T16:45:53;51.25;;;26.83;;
29120;SDS011;16191;49.548;8.658;2023-02-10T16:48:20;51.60;;;27.23;;
29120;SDS011;16191;49.548;8.658;2023-02-10T16:50:46;45.28;;;25.25;;
29120;SDS011;16191;49.548;8.658;2023-02-10T16:53:13;51.08;;;26.40;;
29120;SDS011;16191;49.548;8.658;2023-02-10T16:55:40;55.95;;;28.20;;